createdAt,value
2019-04-16T00:01:08.253Z,83.80
2019-04-16T00:05:16.043Z,83.70
2019-04-16T00:09:30.571Z,83.90
2019-04-16T00:13:43.941Z,83.70
2019-04-16T00:17:48.239Z,83.70
2019-04-16T00:22:12.512Z,83.80
2019-04-16T00:26:16.997Z,83.80
2019-04-16T00:30:21.296Z,84.00
2019-04-16T00:34:25.530Z,83.80
2019-04-16T00:38:40.098Z,83.80
2019-04-16T00:42:35.583Z,83.80
2019-04-16T00:46:39.817Z,84.10
2019-04-16T00:50:44.027Z,84.00
2019-04-16T00:54:48.237Z,84.00
2019-04-16T00:58:53.110Z,83.80
2019-04-16T01:02:57.575Z,84.10
2019-04-16T01:07:01.811Z,84.10
2019-04-16T01:11:06.038Z,84.00
2019-04-16T01:15:10.319Z,84.00
2019-04-16T01:19:14.574Z,83.90
2019-04-16T01:23:18.771Z,84.30
2019-04-16T01:27:31.570Z,84.30
2019-04-16T01:32:10.262Z,84.20
2019-04-16T01:36:24.984Z,84.40
2019-04-16T01:40:41.160Z,84.30
2019-04-16T01:44:45.377Z,84.30
2019-04-16T01:48:49.679Z,84.50
2019-04-16T01:52:53.909Z,84.60
2019-04-16T01:56:59.915Z,85.00
2019-04-16T02:01:04.192Z,84.60
2019-04-16T02:05:08.514Z,84.30
2019-04-16T02:09:22.559Z,84.70
2019-04-16T02:13:18.599Z,84.60
2019-04-16T02:17:26.697Z,84.80
2019-04-16T02:21:28.791Z,85.00
2019-04-16T02:25:32.988Z,85.30
2019-04-16T02:29:37.195Z,84.20
2019-04-16T02:33:41.396Z,85.10
2019-04-16T02:37:45.601Z,85.70
2019-04-16T02:41:57.065Z,85.30
2019-04-16T02:45:58.397Z,85.70
2019-04-16T02:50:02.398Z,85.50
2019-04-16T02:54:38.060Z,85.30
2019-04-16T02:58:47.840Z,85.70
2019-04-16T03:02:58.590Z,86.10
2019-04-16T03:07:04.159Z,85.90
2019-04-16T03:11:08.673Z,86.50
2019-04-16T03:15:14.713Z,85.70
2019-04-16T03:19:26.260Z,86.00
2019-04-16T03:23:30.489Z,86.10
2019-04-16T03:27:34.756Z,86.30
2019-04-16T03:31:38.959Z,86.30
2019-04-16T03:35:43.332Z,86.10
2019-04-16T03:39:47.533Z,85.70
2019-04-16T03:43:51.740Z,86.30
2019-04-16T03:47:55.943Z,86.00
2019-04-16T03:52:00.172Z,86.20
2019-04-16T03:56:04.768Z,86.20
2019-04-16T04:00:12.498Z,86.30
2019-04-16T04:04:15.921Z,85.90
2019-04-16T04:08:20.175Z,86.20
2019-04-16T04:12:27.589Z,86.00
2019-04-16T04:16:30.496Z,86.30
2019-04-16T04:24:39.817Z,85.00
2019-04-16T04:28:44.018Z,85.90
2019-04-16T04:32:48.222Z,85.80
2019-04-16T04:36:52.424Z,85.90
2019-04-16T04:40:59.701Z,86.40
2019-04-16T04:45:02.601Z,86.50
2019-04-16T04:49:06.812Z,86.20
2019-04-16T04:53:11.022Z,86.30
2019-04-16T04:57:15.214Z,86.60
2019-04-16T05:01:19.418Z,86.80
2019-04-16T05:05:40.479Z,87.20
2019-04-16T05:09:44.733Z,86.60
2019-04-16T05:13:48.954Z,87.20
2019-04-16T05:17:53.154Z,87.60
2019-04-16T05:21:57.368Z,87.70
2019-04-16T05:26:04.539Z,87.30
2019-04-16T05:30:07.812Z,87.50
2019-04-16T05:34:12.120Z,88.30
2019-04-16T05:38:16.315Z,87.60
2019-04-16T05:42:22.452Z,88.00
2019-04-16T05:46:26.495Z,88.50
2019-04-16T05:50:30.771Z,88.70
2019-04-16T05:55:03.365Z,88.70
2019-04-16T05:59:07.580Z,88.00
2019-04-16T06:03:12.040Z,88.20
2019-04-16T06:07:16.579Z,88.50
2019-04-16T06:11:28.703Z,88.70
2019-04-16T06:15:35.949Z,89.00
2019-04-16T06:19:52.463Z,88.70
2019-04-16T06:24:15.750Z,89.00
2019-04-16T06:29:00.032Z,89.20
2019-04-16T06:33:06.334Z,89.10
2019-04-16T06:37:20.325Z,89.30
2019-04-16T06:41:42.006Z,90.10
2019-04-16T06:46:01.891Z,90.20
2019-04-16T06:50:32.519Z,90.20
2019-04-16T06:54:50.507Z,90.50
2019-04-16T06:59:02.512Z,90.60
2019-04-16T07:03:27.012Z,90.50
2019-04-16T07:07:49.575Z,90.80
2019-04-16T07:11:56.134Z,91.20
2019-04-16T07:16:00.506Z,90.80
2019-04-16T07:20:05.191Z,91.10
2019-04-16T07:24:09.461Z,91.10
2019-04-16T07:28:44.942Z,91.40
2019-04-16T07:33:01.582Z,91.50
2019-04-16T07:37:27.634Z,91.40
2019-04-16T07:42:08.483Z,91.50
2019-04-16T07:46:15.181Z,91.40
2019-04-16T07:50:44.522Z,91.50
2019-04-16T07:55:23.746Z,91.40
2019-04-16T07:59:32.342Z,91.50
2019-04-16T08:03:36.218Z,91.60
2019-04-16T08:07:40.698Z,91.40
2019-04-16T08:11:44.952Z,91.40
2019-04-16T08:15:49.174Z,91.60
2019-04-16T08:19:55.362Z,91.50
2019-04-16T08:24:03.250Z,91.60
2019-04-16T08:28:07.802Z,91.90
2019-04-16T08:32:12.823Z,91.60
2019-04-16T08:36:18.048Z,91.70
2019-04-16T08:40:22.534Z,91.70
2019-04-16T08:44:26.771Z,91.90
2019-04-16T08:48:31.003Z,91.80
2019-04-16T08:52:35.231Z,91.80
2019-04-16T08:56:39.559Z,91.90
2019-04-16T09:00:46.647Z,91.90
2019-04-16T09:04:51.474Z,91.70
2019-04-16T09:09:24.372Z,91.70
2019-04-16T09:13:29.593Z,91.70
2019-04-16T09:17:42.220Z,91.60
2019-04-16T09:21:46.438Z,91.10
2019-04-16T09:26:22.499Z,91.40
2019-04-16T09:30:37.264Z,91.20
2019-04-16T09:35:09.176Z,91.20
2019-04-16T09:39:30.398Z,91.00
2019-04-16T09:43:36.234Z,91.00
2019-04-16T09:47:40.545Z,90.80
2019-04-16T09:51:44.898Z,90.90
2019-04-16T09:55:50.627Z,91.00
2019-04-16T10:00:00.622Z,90.90
2019-04-16T10:04:05.247Z,89.80
2019-04-16T10:08:12.415Z,90.20
2019-04-16T10:12:15.383Z,90.60
2019-04-16T10:16:21.270Z,89.00
2019-04-16T10:20:25.559Z,90.20
2019-04-16T10:24:47.501Z,90.00
2019-04-16T10:28:51.785Z,89.50
2019-04-16T10:32:56.109Z,88.90
2019-04-16T10:37:00.352Z,88.30
2019-04-16T10:41:11.812Z,88.50
2019-04-16T10:45:34.075Z,88.80
2019-04-16T10:50:03.384Z,88.90
2019-04-16T10:54:18.675Z,88.70
2019-04-16T10:58:39.968Z,88.40
2019-04-16T11:02:54.287Z,88.00
2019-04-16T11:07:01.299Z,86.60
2019-04-16T11:11:05.670Z,86.90
2019-04-16T11:15:10.896Z,86.20
2019-04-16T11:19:15.531Z,86.60
2019-04-16T11:23:19.693Z,88.00
2019-04-16T11:27:23.887Z,85.70
2019-04-16T11:31:28.219Z,84.80
2019-04-16T11:35:32.474Z,85.50
2019-04-16T11:39:36.699Z,85.30
2019-04-16T11:43:40.917Z,82.70
2019-04-16T11:47:48.064Z,84.10
2019-04-16T11:51:56.888Z,83.00
2019-04-16T11:56:01.098Z,83.40
2019-04-16T12:00:08.842Z,83.20
2019-04-16T12:04:31.122Z,83.00
2019-04-16T12:09:00.651Z,82.70
2019-04-16T12:13:27.724Z,81.20
2019-04-16T12:17:56.779Z,81.60
2019-04-16T12:22:09.868Z,83.20
2019-04-16T12:26:31.948Z,81.30
2019-04-16T12:30:52.512Z,81.80
2019-04-16T12:35:15.771Z,81.80
2019-04-16T12:39:39.786Z,79.30
2019-04-16T12:43:59.000Z,80.00
2019-04-16T12:48:12.583Z,79.60
2019-04-16T12:52:38.561Z,79.00
2019-04-16T12:57:20.230Z,79.80
2019-04-16T13:01:36.490Z,79.20
2019-04-16T13:05:50.868Z,76.00
2019-04-16T13:10:02.564Z,77.80
2019-04-16T13:14:24.708Z,78.20
2019-04-16T13:18:57.147Z,77.30
2019-04-16T13:23:04.579Z,76.50
2019-04-16T13:27:20.527Z,77.10
2019-04-16T13:31:24.759Z,77.20
2019-04-16T13:35:28.979Z,75.90
2019-04-16T13:39:59.601Z,76.60
2019-04-16T13:44:09.364Z,75.70
2019-04-16T13:48:42.382Z,75.10
2019-04-16T13:52:46.001Z,75.60
2019-04-16T13:56:56.006Z,76.80
2019-04-16T14:01:10.073Z,76.70
2019-04-16T14:05:14.873Z,78.40
2019-04-16T14:09:19.119Z,78.10
2019-04-16T14:13:23.343Z,77.70
2019-04-16T14:17:27.690Z,76.40
2019-04-16T14:21:31.910Z,76.40
2019-04-16T14:25:36.283Z,76.80
2019-04-16T14:29:40.486Z,77.10
2019-04-16T14:33:50.318Z,77.60
2019-04-16T14:37:54.581Z,76.80
2019-04-16T14:41:58.912Z,76.70
2019-04-16T14:46:03.220Z,77.40
2019-04-16T14:50:07.531Z,77.40
2019-04-16T14:54:18.569Z,76.10
2019-04-16T14:58:41.118Z,76.00
2019-04-16T15:02:58.010Z,77.40
2019-04-16T15:07:30.146Z,77.50
2019-04-16T15:11:53.127Z,75.00
2019-04-16T15:16:34.774Z,76.00
2019-04-16T15:21:12.336Z,76.60
2019-04-16T15:25:33.698Z,76.30
2019-04-16T15:29:49.380Z,76.80
2019-04-16T15:34:11.800Z,79.10
2019-04-16T15:38:47.179Z,78.50
2019-04-16T15:47:22.011Z,78.50
2019-04-16T15:51:33.006Z,79.10
2019-04-16T15:55:56.276Z,79.30
2019-04-16T16:04:31.990Z,77.10
2019-04-16T16:08:40.319Z,77.80
2019-04-16T16:12:44.569Z,78.30
2019-04-16T16:16:50.761Z,77.40
2019-04-16T16:20:54.654Z,77.30
2019-04-16T16:24:58.861Z,75.20
2019-04-16T16:29:03.126Z,76.80
2019-04-16T16:33:07.347Z,75.70
2019-04-16T16:37:11.563Z,74.10
2019-04-16T16:41:15.851Z,76.70
2019-04-16T16:45:22.012Z,74.10
2019-04-16T16:49:26.217Z,74.20
2019-04-16T16:53:36.929Z,73.30
2019-04-16T16:57:46.977Z,73.90
2019-04-16T17:02:10.464Z,72.30
2019-04-16T17:06:16.402Z,72.80
2019-04-16T17:10:21.770Z,71.60
2019-04-16T17:14:25.934Z,71.10
2019-04-16T17:18:30.255Z,71.10
2019-04-16T17:22:34.465Z,71.50
2019-04-16T17:26:38.656Z,70.90
2019-04-16T17:30:42.952Z,70.40
2019-04-16T17:34:47.167Z,70.80
2019-04-16T17:38:51.468Z,70.70
2019-04-16T17:42:59.525Z,70.80
2019-04-16T17:47:31.906Z,71.00
2019-04-16T17:51:42.103Z,70.70
2019-04-16T17:56:23.568Z,71.10
2019-04-16T18:00:52.779Z,71.40
2019-04-16T18:05:16.056Z,71.50
2019-04-16T18:09:26.955Z,71.80
2019-04-16T18:13:41.347Z,72.10
2019-04-16T18:17:59.171Z,72.30
2019-04-16T18:22:21.771Z,72.30
2019-04-16T18:26:32.722Z,72.30
2019-04-16T18:30:53.153Z,72.30
2019-04-16T18:35:17.226Z,72.80
2019-04-16T18:39:46.413Z,72.90
2019-04-16T18:44:08.706Z,73.20
2019-04-16T18:48:18.058Z,73.30
2019-04-16T18:52:22.408Z,73.60
2019-04-16T18:56:26.779Z,73.60
2019-04-16T19:00:51.254Z,73.70
2019-04-16T19:04:56.003Z,73.80
2019-04-16T19:09:00.383Z,74.10
2019-04-16T19:13:09.610Z,74.10
2019-04-16T19:17:10.622Z,74.70
2019-04-16T19:21:14.946Z,74.20
2019-04-16T19:25:19.167Z,74.20
2019-04-16T19:29:23.483Z,74.00
2019-04-16T19:33:33.367Z,74.10
2019-04-16T19:37:34.048Z,74.20
2019-04-16T19:41:41.116Z,74.20
2019-04-16T19:45:44.562Z,74.00
2019-04-16T19:49:48.823Z,74.10
2019-04-16T19:53:53.150Z,74.20
2019-04-16T19:57:58.015Z,74.30
2019-04-16T20:02:02.512Z,74.30
2019-04-16T20:06:06.893Z,74.40
2019-04-16T20:10:11.137Z,74.40
2019-04-16T20:14:15.647Z,74.50
2019-04-16T20:18:24.230Z,74.60
2019-04-16T20:22:29.927Z,74.40
2019-04-16T20:26:34.184Z,74.60
2019-04-16T20:30:38.526Z,74.80
2019-04-16T20:34:45.253Z,74.60
2019-04-16T20:38:49.785Z,74.80
2019-04-16T20:42:54.014Z,74.80
2019-04-16T20:47:03.617Z,74.90
2019-04-16T20:51:05.495Z,74.80
2019-04-16T20:55:15.707Z,74.90
2019-04-16T20:59:16.847Z,74.80
2019-04-16T21:03:22.650Z,74.80
2019-04-16T21:07:27.216Z,75.00
2019-04-16T21:11:31.509Z,74.90
2019-04-16T21:15:35.911Z,74.80
2019-04-16T21:19:47.847Z,75.00
2019-04-16T21:23:52.354Z,75.00
2019-04-16T21:28:02.742Z,75.10
2019-04-16T21:32:10.652Z,75.00
2019-04-16T21:36:24.198Z,75.00
2019-04-16T21:40:28.423Z,75.00
2019-04-16T21:44:32.900Z,75.20
2019-04-16T21:48:37.435Z,75.20
2019-04-16T21:52:41.647Z,75.20
2019-04-16T21:56:45.954Z,75.20
2019-04-16T22:01:05.186Z,75.30
2019-04-16T22:05:10.812Z,75.30
2019-04-16T22:09:15.114Z,75.40
2019-04-16T22:13:20.084Z,75.50
2019-04-16T22:17:25.173Z,75.40
2019-04-16T22:21:29.352Z,75.50
2019-04-16T22:25:33.590Z,75.50
2019-04-16T22:29:37.806Z,76.30
2019-04-16T22:33:42.361Z,75.50
2019-04-16T22:37:46.580Z,75.60
2019-04-16T22:41:57.422Z,75.50
2019-04-16T22:46:08.767Z,75.60
2019-04-16T22:50:17.020Z,75.70
2019-04-16T22:54:20.902Z,75.80
2019-04-16T22:58:25.360Z,75.80
2019-04-16T23:02:30.774Z,75.90
2019-04-16T23:06:37.796Z,76.00
2019-04-16T23:10:40.863Z,76.10
2019-04-16T23:14:45.152Z,76.10
2019-04-16T23:18:50.118Z,76.10
2019-04-16T23:22:54.407Z,76.20
2019-04-16T23:27:01.576Z,76.10
2019-04-16T23:31:04.580Z,76.20
2019-04-16T23:35:10.772Z,76.20
2019-04-16T23:39:14.711Z,76.20
2019-04-16T23:43:26.335Z,76.20
2019-04-16T23:47:57.275Z,76.20
2019-04-16T23:52:06.465Z,76.30
2019-04-16T23:56:21.422Z,76.30
